Time;durP1;ratioP1;P1;durP2;ratioP2;P2;SDS_P1;SDS_P2;PMS_P1;PMS_P2;Temp;Humidity;BMP_temperature;BMP_pressure;BME280_temperature;BME280_humidity;BME280_pressure;Samples;Min_cycle;Max_cycle;Signal;HPM_P1;HPM_P2
2023/03/25 00:01:12;;;;;;;14.90;4.50;;;;;;;5.33;99.55;98424.20;107494;1278;68112;-72
2023/03/25 00:04:03;;;;;;;15.30;4.70;;;;;;;5.31;99.57;98423.28;107476;1279;72518;-73
2023/03/25 00:06:49;;;;;;;14.70;5.00;;;;;;;5.30;99.53;98426.72;107316;1279;59509;-74
2023/03/25 00:09:38;;;;;;;15.70;5.50;;;;;;;5.29;99.67;98425.56;107453;1279;60090;-74
2023/03/25 00:12:25;;;;;;;13.80;5.00;;;;;;;5.28;99.91;98423.55;107503;1279;74174;-73
2023/03/25 00:15:15;;;;;;;12.80;4.30;;;;;;;5.26;100.00;98417.02;107501;1279;68043;-71
2023/03/25 00:18:03;;;;;;;14.60;5.00;;;;;;;5.24;100.00;98415.23;107225;1279;72420;-71
2023/03/25 00:20:53;;;;;;;17.10;5.40;;;;;;;5.22;100.00;98420.69;107134;1279;58096;-73
2023/03/25 00:23:40;;;;;;;13.80;4.70;;;;;;;5.19;100.00;98417.56;107354;1279;60126;-72
2023/03/25 00:26:28;;;;;;;14.60;4.80;;;;;;;5.19;100.00;98414.44;107441;1279;73113;-72
2023/03/25 00:29:15;;;;;;;10.90;3.70;;;;;;;5.18;100.00;98417.98;107120;1279;67858;-71
2023/03/25 00:32:02;;;;;;;12.60;4.10;;;;;;;5.19;100.00;98419.36;107434;1279;72556;-72
2023/03/25 00:34:50;;;;;;;14.80;4.80;;;;;;;5.17;100.00;98411.73;107318;1279;59756;-73
2023/03/25 00:37:37;;;;;;;19.00;5.70;;;;;;;5.16;100.00;98404.65;107222;1279;60353;-73
2023/03/25 00:40:23;;;;;;;15.00;4.70;;;;;;;5.15;100.00;98402.82;107447;1279;72862;-72
2023/03/25 00:43:11;;;;;;;10.90;4.40;;;;;;;5.11;100.00;98403.61;107396;1279;68062;-70
2023/03/25 00:45:58;;;;;;;14.70;4.80;;;;;;;5.09;100.00;98403.08;107186;1278;72344;-71
2023/03/25 00:48:45;;;;;;;15.70;5.10;;;;;;;5.06;100.00;98401.02;107433;1279;59283;-72
2023/03/25 00:51:32;;;;;;;12.40;4.40;;;;;;;5.03;100.00;98399.67;107323;1279;60216;-74
2023/03/25 00:54:20;;;;;;;13.10;4.70;;;;;;;5.02;100.00;98397.16;107231;1279;72739;-72
2023/03/25 00:57:07;;;;;;;13.40;5.50;;;;;;;5.00;100.00;98390.84;107489;1279;67799;-71
2023/03/25 00:59:54;;;;;;;15.70;6.40;;;;;;;4.97;100.00;98388.05;107509;1278;70988;-72
2023/03/25 01:02:41;;;;;;;12.20;5.10;;;;;;;4.95;100.00;98385.40;107459;1279;59488;-72
2023/03/25 01:05:30;;;;;;;14.60;5.80;;;;;;;4.92;100.00;98381.57;107350;1279;60245;-71
2023/03/25 01:08:16;;;;;;;13.90;4.90;;;;;;;4.90;100.00;98380.36;107450;1279;71032;-73
2023/03/25 01:11:04;;;;;;;10.70;4.70;;;;;;;4.89;100.00;98380.61;107207;1278;67924;-72
2023/03/25 01:13:52;;;;;;;10.20;5.10;;;;;;;4.87;100.00;98376.21;107331;1279;71372;-72
2023/03/25 01:16:39;;;;;;;11.20;5.10;;;;;;;4.88;100.00;98369.84;107520;1279;58073;-71
2023/03/25 01:19:26;;;;;;;11.60;6.00;;;;;;;4.88;100.00;98367.70;107369;1279;60166;-74
2023/03/25 01:22:13;;;;;;;12.70;5.90;;;;;;;4.88;100.00;98362.02;107364;1279;71862;-72
2023/03/25 01:25:00;;;;;;;12.90;6.20;;;;;;;4.90;100.00;98356.06;107207;1278;66667;-72
2023/03/25 01:27:51;;;;;;;11.70;5.40;;;;;;;4.91;100.00;98348.61;107420;1279;72586;-72
2023/03/25 01:30:37;;;;;;;7.50;3.60;;;;;;;4.92;100.00;98335.36;107449;1279;59516;-71
2023/03/25 01:33:24;;;;;;;9.40;4.80;;;;;;;4.93;100.00;98333.71;107201;1280;60276;-73
2023/03/25 01:36:11;;;;;;;11.40;5.90;;;;;;;4.92;100.00;98329.76;107193;1281;71211;-71
2023/03/25 01:39:00;;;;;;;12.40;6.00;;;;;;;4.89;100.00;98337.66;107289;1280;67700;-74
2023/03/25 01:41:49;;;;;;;10.70;5.00;;;;;;;4.95;100.00;98343.41;107047;1280;71113;-72
2023/03/25 01:44:37;;;;;;;9.30;6.90;;;;;;;4.96;100.00;98346.48;107155;1280;59621;-72
2023/03/25 01:47:25;;;;;;;11.60;5.20;;;;;;;4.96;100.00;98345.22;107282;1280;58751;-75
2023/03/25 01:50:13;;;;;;;11.60;6.40;;;;;;;4.96;100.00;98345.96;107236;1280;72223;-73
2023/03/25 01:53:03;;;;;;;11.20;5.90;;;;;;;4.96;100.00;98346.83;107029;1282;66687;-73
2023/03/25 01:55:51;;;;;;;10.70;5.80;;;;;;;4.96;100.00;98345.43;107081;1282;71170;-75
2023/03/25 01:58:40;;;;;;;11.90;6.80;;;;;;;4.95;100.00;98353.04;107184;1280;59674;-72
2023/03/25 02:01:27;;;;;;;11.60;5.80;;;;;;;4.94;100.00;98357.36;107258;1284;60127;-72
2023/03/25 02:04:21;;;;;;;11.90;6.20;;;;;;;4.92;100.00;98365.44;107143;1279;72792;-72
2023/03/25 02:07:09;;;;;;;12.70;6.00;;;;;;;4.91;100.00;98375.84;107484;1279;68055;-72
2023/03/25 02:10:03;;;;;;;14.00;6.50;;;;;;;4.92;100.00;98385.64;107359;1279;71311;-71
2023/03/25 02:12:50;;;;;;;13.90;6.30;;;;;;;4.92;100.00;98393.75;107323;1279;58196;-72
2023/03/25 02:16:10;;;;;;;13.10;5.30;;;;;;;4.91;100.00;98388.70;106707;1279;1002439;-72
2023/03/25 02:19:39;;;;;;;11.20;5.30;;;;;;;4.91;100.00;98382.73;107177;1279;74201;-72
2023/03/25 02:23:02;;;;;;;10.50;5.20;;;;;;;4.91;100.00;98379.58;107489;1279;66398;-70
2023/03/25 02:26:42;;;;;;;10.00;4.50;;;;;;;4.91;100.00;98374.14;107481;1279;72602;-72
2023/03/25 02:30:08;;;;;;;9.70;4.90;;;;;;;4.91;100.00;98368.13;106824;1284;60759;-74
2023/03/25 02:33:32;;;;;;;9.90;4.70;;;;;;;4.93;100.00;98367.77;106705;1283;59157;-73
2023/03/25 02:37:00;;;;;;;11.40;4.80;;;;;;;4.89;100.00;98355.49;106880;1283;72888;-72
2023/03/25 02:39:51;;;;;;;11.10;4.90;;;;;;;4.98;100.00;98364.27;106918;1284;67186;-73
2023/03/25 02:43:13;;;;;;;10.90;4.40;;;;;;;4.99;100.00;98366.48;106736;1285;71504;-71
2023/03/25 02:46:08;;;;;;;10.70;4.40;;;;;;;5.00;100.00;98364.40;106769;1285;58043;-73
2023/03/25 02:49:12;;;;;;;11.20;4.30;;;;;;;4.98;100.00;98357.09;106599;1283;59249;-72
2023/03/25 02:52:07;;;;;;;12.40;4.60;;;;;;;5.03;100.00;98355.01;106683;1285;70844;-71
2023/03/25 02:55:00;;;;;;;14.00;4.20;;;;;;;5.06;100.00;98353.55;106758;1283;66428;-72
2023/03/25 02:57:53;;;;;;;9.70;4.00;;;;;;;5.09;100.00;98349.81;106608;1284;72866;-73
2023/03/25 03:00:42;;;;;;;10.50;4.60;;;;;;;5.12;100.00;98349.92;106939;1285;57976;-74
2023/03/25 03:03:28;;;;;;;9.90;3.90;;;;;;;5.15;100.00;98345.31;106804;1285;60459;-73
2023/03/25 03:06:18;;;;;;;10.90;4.00;;;;;;;5.16;100.00;98346.44;106890;1279;71489;-71
2023/03/25 03:09:35;;;;;;;9.10;3.80;;;;;;;5.18;100.00;98345.92;105968;1279;1002470;-71
2023/03/25 03:13:04;;;;;;;11.70;3.20;;;;;;;5.21;100.00;98344.61;107359;1279;73807;-72
2023/03/25 03:16:14;;;;;;;9.60;3.40;;;;;;;5.24;100.00;98342.39;107460;1279;59413;-72
2023/03/25 03:19:33;;;;;;;8.70;3.90;;;;;;;5.25;100.00;98342.15;107348;1279;60392;-72
2023/03/25 03:23:09;;;;;;;9.90;3.50;;;;;;;5.27;100.00;98346.59;107507;1278;73799;-72
2023/03/25 03:26:12;;;;;;;9.80;4.00;;;;;;;5.28;100.00;98344.00;107469;1279;66380;-72
2023/03/25 03:29:28;;;;;;;10.10;3.70;;;;;;;5.29;100.00;98339.38;107364;1279;72222;-74
2023/03/25 03:32:26;;;;;;;10.50;3.70;;;;;;;5.28;100.00;98336.78;107331;1279;59692;-71
2023/03/25 03:35:26;;;;;;;8.80;3.40;;;;;;;5.27;100.00;98334.96;107459;1279;60231;-71
2023/03/25 03:38:16;;;;;;;8.80;3.10;;;;;;;5.27;100.00;98335.33;107252;1279;71651;-70
2023/03/25 03:41:12;;;;;;;14.10;4.10;;;;;;;5.26;100.00;98338.23;107481;1278;68019;-71
2023/03/25 03:44:06;;;;;;;10.20;3.70;;;;;;;5.25;100.00;98337.61;107454;1279;71649;-72
2023/03/25 03:47:11;;;;;;;10.90;3.60;;;;;;;5.24;100.00;98335.39;107436;1279;57285;-74
2023/03/25 03:50:13;;;;;;;9.90;3.60;;;;;;;5.22;100.00;98330.65;107274;1279;60345;-74
2023/03/25 03:53:15;;;;;;;9.10;3.50;;;;;;;5.20;100.00;98330.84;107520;1279;70565;-72
2023/03/25 03:56:38;;;;;;;9.10;3.60;;;;;;;5.19;100.00;98326.15;107364;1279;68251;-71
2023/03/25 03:59:41;;;;;;;10.70;3.50;;;;;;;5.16;100.00;98323.89;106857;1285;72794;-71
2023/03/25 04:02:39;;;;;;;11.20;4.30;;;;;;;5.14;100.00;98315.32;106753;1285;58076;-71
2023/03/25 04:05:29;;;;;;;8.40;3.70;;;;;;;5.11;100.00;98320.41;106967;1284;61217;-72
2023/03/25 04:08:51;;;;;;;9.20;3.60;;;;;;;5.09;100.00;98316.54;106870;1285;73170;-73
2023/03/25 04:12:09;;;;;;;11.20;4.10;;;;;;;5.08;100.00;98317.55;106929;1284;69296;-73
2023/03/25 04:15:00;;;;;;;10.10;3.90;;;;;;;5.02;100.00;98308.69;106856;1284;72662;-74
2023/03/25 04:17:49;;;;;;;9.10;3.80;;;;;;;5.04;100.00;98314.19;106858;1285;57602;-74
2023/03/25 04:20:36;;;;;;;13.20;3.80;;;;;;;5.03;100.00;98319.05;106768;1285;58087;-73
2023/03/25 04:23:22;;;;;;;9.20;2.40;;;;;;;5.01;100.00;98320.38;106062;1285;1002215;-73
2023/03/25 04:26:09;;;;;;;8.50;3.50;;;;;;;4.99;100.00;98320.02;106945;1285;66338;-74
2023/03/25 04:28:58;;;;;;;10.50;3.80;;;;;;;4.99;100.00;98323.09;106691;1285;72869;-72
2023/03/25 04:31:49;;;;;;;10.90;3.80;;;;;;;4.99;100.00;98321.12;106780;1284;59507;-74
2023/03/25 04:34:36;;;;;;;9.80;3.70;;;;;;;4.99;100.00;98326.73;106809;1285;60058;-74
2023/03/25 04:37:32;;;;;;;8.40;3.90;;;;;;;4.98;100.00;98326.98;107466;1279;73809;-73
2023/03/25 04:40:19;;;;;;;8.20;3.80;;;;;;;5.00;100.00;98325.42;107478;1279;68943;-73
2023/03/25 04:43:07;;;;;;;10.30;4.50;;;;;;;5.00;100.00;98326.97;107294;1279;72630;-72
2023/03/25 04:45:53;;;;;;;10.30;3.80;;;;;;;5.02;100.00;98326.13;107394;1279;59463;-72
2023/03/25 04:48:43;;;;;;;11.20;3.90;;;;;;;5.03;100.00;98332.01;107462;1279;58991;-72
2023/03/25 04:51:31;;;;;;;10.30;3.60;;;;;;;5.03;100.00;98334.45;106597;1279;1002346;-75
2023/03/25 04:54:20;;;;;;;11.00;3.70;;;;;;;5.04;100.00;98334.40;107433;1282;68966;-72
2023/03/25 04:57:09;;;;;;;10.80;3.70;;;;;;;5.04;100.00;98338.45;107396;1279;72665;-75
2023/03/25 04:59:56;;;;;;;9.60;3.40;;;;;;;5.04;100.00;98337.19;107444;1279;58670;-73
2023/03/25 05:02:48;;;;;;;11.40;3.50;;;;;;;5.06;100.00;98338.48;107462;1279;61144;-74
2023/03/25 05:05:35;;;;;;;9.40;3.70;;;;;;;5.06;100.00;98339.52;107253;1279;73180;-74
2023/03/25 05:08:21;;;;;;;9.20;3.60;;;;;;;5.09;100.00;98341.02;107258;1280;66638;-71
2023/03/25 05:11:08;;;;;;;9.30;3.60;;;;;;;5.13;100.00;98342.33;107245;1281;73751;-74
2023/03/25 05:13:55;;;;;;;11.10;3.30;;;;;;;5.15;100.00;98343.67;107135;1282;60504;-73
2023/03/25 05:16:43;;;;;;;9.00;3.30;;;;;;;5.18;99.99;98343.09;107148;1280;60260;-76
2023/03/25 05:19:33;;;;;;;7.20;2.70;;;;;;;5.20;99.92;98340.61;107032;1280;72950;-76
2023/03/25 05:22:20;;;;;;;7.90;3.30;;;;;;;5.22;99.87;98341.92;107002;1282;67804;-74
2023/03/25 05:25:09;;;;;;;7.70;3.60;;;;;;;5.24;99.79;98346.50;107156;1280;72878;-74
2023/03/25 05:27:55;;;;;;;10.70;3.30;;;;;;;5.27;99.77;98349.04;107219;1281;58607;-71
2023/03/25 05:30:45;;;;;;;8.50;3.70;;;;;;;5.30;99.90;98347.92;106976;1282;58782;-71
2023/03/25 05:33:32;;;;;;;10.20;3.50;;;;;;;5.33;99.60;98350.14;107229;1281;71759;-71
2023/03/25 05:36:18;;;;;;;9.40;3.40;;;;;;;5.37;99.48;98349.48;107155;1281;66538;-71
2023/03/25 05:39:05;;;;;;;8.90;3.40;;;;;;;5.42;99.36;98352.36;107299;1279;71858;-72
2023/03/25 05:41:54;;;;;;;11.70;3.90;;;;;;;5.43;99.02;98350.19;106506;1279;1002259;-73
2023/03/25 05:44:49;;;;;;;9.10;3.50;;;;;;;5.54;98.89;98361.41;107426;1279;60088;-72
2023/03/25 05:47:36;;;;;;;10.70;3.30;;;;;;;5.60;98.54;98367.19;107477;1282;72091;-71
2023/03/25 05:50:22;;;;;;;9.40;3.30;;;;;;;5.67;98.33;98369.61;107501;1279;68194;-73
2023/03/25 05:53:12;;;;;;;9.40;3.60;;;;;;;5.70;98.29;98360.17;107491;1279;72536;-71
2023/03/25 05:55:58;;;;;;;8.00;3.10;;;;;;;5.80;97.84;98366.22;107466;1279;58469;-73
2023/03/25 05:58:48;;;;;;;9.40;4.00;;;;;;;5.85;97.60;98366.69;107479;1279;60123;-73
2023/03/25 06:01:37;;;;;;;13.50;5.80;;;;;;;5.91;96.99;98375.36;107447;1279;72908;-70
2023/03/25 06:04:23;;;;;;;8.90;4.20;;;;;;;5.97;96.99;98377.35;107484;1279;67869;-70
2023/03/25 06:07:18;;;;;;;10.60;4.50;;;;;;;6.02;96.44;98372.30;107445;1279;72569;-70
2023/03/25 06:10:05;;;;;;;9.70;3.50;;;;;;;6.13;96.51;98379.98;107402;1280;57833;-68
2023/03/25 06:12:52;;;;;;;9.50;3.30;;;;;;;6.23;96.26;98378.11;107403;1279;60333;-69
2023/03/25 06:15:40;;;;;;;11.30;4.90;;;;;;;6.33;96.11;98380.65;107391;1282;73032;-69
2023/03/25 06:18:27;;;;;;;11.70;4.00;;;;;;;6.37;95.90;98374.77;107321;1280;66323;-70
2023/03/25 06:21:14;;;;;;;8.50;3.10;;;;;;;6.56;95.56;98385.11;107078;1280;72793;-68
2023/03/25 06:24:00;;;;;;;8.80;3.70;;;;;;;6.71;95.30;98389.93;106973;1280;59683;-68
2023/03/25 06:26:47;;;;;;;9.50;3.70;;;;;;;6.81;93.22;98397.17;107267;1279;61177;-70
2023/03/25 06:29:36;;;;;;;11.80;3.90;;;;;;;6.87;92.55;98396.31;107257;1280;73869;-68
2023/03/25 06:32:24;;;;;;;12.80;4.30;;;;;;;6.98;92.54;98395.84;107391;1283;67925;-69
2023/03/25 06:35:11;;;;;;;10.50;4.60;;;;;;;7.12;91.83;98399.41;107240;1280;72656;-67
2023/03/25 06:37:58;;;;;;;9.30;3.70;;;;;;;7.28;90.88;98387.71;107333;1279;59776;-70
2023/03/25 06:41:06;;;;;;;17.60;9.60;;;;;;;7.81;89.85;98391.54;107369;1279;60330;-70
2023/03/25 06:43:52;;;;;;;9.50;4.70;;;;;;;8.79;87.60;98388.35;107237;1280;74093;-69
2023/03/25 06:47:01;;;;;;;9.00;3.60;;;;;;;10.43;79.89;98379.46;107359;1280;67685;-71
2023/03/25 06:49:50;;;;;;;7.60;3.40;;;;;;;11.92;73.57;98368.99;107446;1280;72548;-69
2023/03/25 06:52:36;;;;;;;8.70;3.30;;;;;;;12.81;67.60;98373.67;107420;1279;57788;-69
2023/03/25 06:55:24;;;;;;;8.40;2.90;;;;;;;13.42;64.35;98373.63;107427;1280;60382;-69
2023/03/25 06:58:11;;;;;;;11.40;4.10;;;;;;;14.40;62.39;98379.10;107446;1279;73627;-70
2023/03/25 07:01:02;;;;;;;15.90;8.80;;;;;;;14.94;58.15;98377.89;107394;1278;68671;-71
2023/03/25 07:03:48;;;;;;;11.00;5.20;;;;;;;15.97;55.47;98378.02;107449;1280;73860;-71
2023/03/25 07:06:35;;;;;;;9.70;2.90;;;;;;;16.97;52.29;98373.95;107437;1280;58036;-70
2023/03/25 07:09:21;;;;;;;7.30;2.70;;;;;;;17.41;49.34;98366.73;107425;1279;59050;-70
2023/03/25 07:12:08;;;;;;;7.80;2.60;;;;;;;17.84;49.87;98370.45;107475;1279;71276;-73
2023/03/25 07:14:56;;;;;;;7.00;2.60;;;;;;;18.00;48.77;98376.45;107419;1279;67048;-71
2023/03/25 07:17:42;;;;;;;7.10;2.40;;;;;;;17.74;48.68;98383.16;107481;1278;73555;-70
2023/03/25 07:20:29;;;;;;;6.60;2.30;;;;;;;17.06;47.78;98385.02;107396;1279;57842;-70
2023/03/25 07:23:16;;;;;;;8.50;2.80;;;;;;;16.34;49.75;98380.06;107415;1279;61098;-71
2023/03/25 07:26:02;;;;;;;7.10;2.60;;;;;;;16.30;50.11;98384.54;107420;1280;71818;-67
2023/03/25 07:28:49;;;;;;;8.80;2.80;;;;;;;16.23;50.09;98378.64;107487;1279;67997;-68
2023/03/25 07:31:36;;;;;;;9.60;3.50;;;;;;;15.90;50.80;98376.45;107419;1279;74169;-69
2023/03/25 07:34:22;;;;;;;8.60;3.00;;;;;;;15.81;52.12;98367.30;107454;1279;58744;-69
2023/03/25 07:37:10;;;;;;;7.30;2.80;;;;;;;15.15;52.44;98369.58;107431;1279;59081;-70
2023/03/25 07:39:56;;;;;;;7.70;2.70;;;;;;;14.78;54.89;98374.35;107478;1278;73000;-72
2023/03/25 07:42:43;;;;;;;10.20;3.40;;;;;;;14.48;55.73;98367.97;107300;1279;67763;-71
2023/03/25 07:45:40;;;;;;;8.90;3.30;;;;;;;14.13;56.79;98363.75;107341;1279;73673;-69
2023/03/25 07:48:31;;;;;;;8.30;3.10;;;;;;;13.82;57.93;98368.94;107394;1279;59150;-73
2023/03/25 07:51:18;;;;;;;9.00;3.10;;;;;;;13.61;58.86;98365.21;107464;1279;60123;-72
2023/03/25 07:54:04;;;;;;;8.60;2.90;;;;;;;13.45;59.37;98365.08;107390;1279;72947;-70
2023/03/25 07:56:53;;;;;;;10.80;4.00;;;;;;;13.14;59.96;98363.10;107498;1279;68946;-75
2023/03/25 07:59:40;;;;;;;9.00;3.40;;;;;;;13.14;61.03;98359.20;107437;1279;72772;-71
2023/03/25 08:02:26;;;;;;;10.90;5.30;;;;;;;13.25;60.88;98355.48;107445;1279;57767;-69
2023/03/25 08:05:20;;;;;;;9.20;3.70;;;;;;;13.46;60.81;98350.88;107454;1278;61377;-71
2023/03/25 08:08:06;;;;;;;8.90;3.50;;;;;;;13.53;60.44;98352.09;107499;1279;71461;-70
2023/03/25 08:10:53;;;;;;;9.80;4.50;;;;;;;13.81;59.44;98354.52;107491;1279;68914;-71
2023/03/25 08:13:40;;;;;;;8.40;3.50;;;;;;;14.08;59.24;98349.81;107447;1278;72438;-71
2023/03/25 08:16:26;;;;;;;9.70;4.20;;;;;;;15.04;56.43;98345.19;107470;1278;57496;-71
2023/03/25 08:19:13;;;;;;;11.30;4.40;;;;;;;15.76;54.85;98336.81;107471;1279;61350;-71
2023/03/25 08:22:00;;;;;;;15.40;7.80;;;;;;;16.08;52.31;98336.52;107487;1279;73270;-70
2023/03/25 08:24:47;;;;;;;8.70;3.10;;;;;;;16.01;51.75;98330.94;107443;1279;67619;-70
2023/03/25 08:27:33;;;;;;;9.20;3.00;;;;;;;15.58;51.98;98330.92;107394;1279;72547;-73
2023/03/25 08:30:21;;;;;;;14.20;8.00;;;;;;;15.97;52.17;98328.14;107385;1279;57960;-72
2023/03/25 08:33:09;;;;;;;12.10;5.40;;;;;;;16.25;51.51;98324.30;107502;1279;58050;-72
2023/03/25 08:35:56;;;;;;;13.60;8.20;;;;;;;16.57;50.89;98320.77;107311;1279;73011;-71
2023/03/25 08:38:43;;;;;;;12.10;6.70;;;;;;;16.56;50.81;98317.48;107513;1279;67739;-70
2023/03/25 08:41:29;;;;;;;10.90;3.30;;;;;;;16.37;50.09;98320.44;107414;1279;72815;-70
2023/03/25 08:44:16;;;;;;;8.60;2.80;;;;;;;15.99;50.99;98322.83;107432;1279;57715;-71
2023/03/25 08:47:03;;;;;;;10.60;3.80;;;;;;;15.58;51.93;98325.14;107420;1279;59133;-70
2023/03/25 08:49:50;;;;;;;8.70;3.10;;;;;;;15.23;53.13;98327.57;107479;1279;72867;-72
2023/03/25 08:52:36;;;;;;;8.90;2.80;;;;;;;14.66;54.03;98328.84;107438;1279;66241;-71
2023/03/25 08:55:24;;;;;;;11.00;3.80;;;;;;;14.12;55.92;98326.91;107499;1279;72674;-73
2023/03/25 08:58:11;;;;;;;9.50;3.00;;;;;;;13.98;56.52;98328.96;107401;1279;57832;-69
2023/03/25 09:00:57;;;;;;;10.20;2.80;;;;;;;13.85;56.64;98333.11;107483;1279;58950;-70
2023/03/25 09:03:45;;;;;;;9.00;2.80;;;;;;;13.76;57.49;98321.04;107507;1279;74383;-73
2023/03/25 09:06:32;;;;;;;11.70;2.70;;;;;;;13.86;57.15;98327.89;107440;1279;69187;-71
2023/03/25 09:09:41;;;;;;;9.10;2.60;;;;;;;13.79;57.01;98324.30;107487;1279;72851;-72
2023/03/25 09:12:28;;;;;;;8.80;2.50;;;;;;;13.59;57.49;98322.88;107429;1279;57563;-75
2023/03/25 09:15:14;;;;;;;8.90;2.50;;;;;;;13.45;58.26;98317.58;107192;1279;59068;-73
2023/03/25 09:18:01;;;;;;;10.60;2.60;;;;;;;13.21;58.95;98316.08;107521;1278;71732;-72
2023/03/25 09:20:50;;;;;;;7.70;2.40;;;;;;;13.02;60.31;98320.16;107348;1279;67157;-72
2023/03/25 09:23:37;;;;;;;11.00;3.10;;;;;;;12.82;60.90;98319.95;107313;1279;72721;-73
2023/03/25 09:26:25;;;;;;;9.30;2.80;;;;;;;12.79;61.14;98328.80;107424;1279;57751;-73
2023/03/25 09:29:11;;;;;;;9.60;2.90;;;;;;;13.09;60.72;98328.45;107493;1279;59575;-74
2023/03/25 09:31:59;;;;;;;9.00;2.90;;;;;;;13.76;58.61;98330.65;107506;1278;73082;-74
2023/03/25 09:34:46;;;;;;;9.50;3.00;;;;;;;14.68;55.73;98328.08;107353;1279;67981;-72
2023/03/25 09:37:36;;;;;;;8.20;2.50;;;;;;;15.63;53.38;98327.38;107451;1278;71267;-72
2023/03/25 09:40:23;;;;;;;9.40;2.30;;;;;;;15.65;52.09;98331.19;107294;1279;57741;-76
2023/03/25 09:43:55;;;;;;;8.40;2.50;;;;;;;15.34;52.78;98332.98;107367;1280;58475;-74
2023/03/25 09:46:43;;;;;;;9.40;2.50;;;;;;;14.50;54.69;98342.66;107496;1279;73972;-75
2023/03/25 09:49:40;;;;;;;9.10;2.70;;;;;;;13.99;56.61;98341.48;107354;1278;68930;-74
2023/03/25 09:52:40;;;;;;;7.80;2.80;;;;;;;13.47;58.50;98337.63;107170;1279;73563;-71
2023/03/25 09:55:32;;;;;;;7.70;2.30;;;;;;;13.07;60.15;98343.86;107322;1279;57946;-73
2023/03/25 09:58:45;;;;;;;10.80;2.90;;;;;;;12.55;62.10;98338.64;107417;1278;61178;-74
2023/03/25 10:02:14;;;;;;;8.00;2.60;;;;;;;12.33;63.89;98338.14;107249;1279;73826;-74
2023/03/25 10:05:38;;;;;;;8.70;2.90;;;;;;;12.18;65.39;98336.80;107327;1279;68789;-76
2023/03/25 10:09:17;;;;;;;9.30;3.10;;;;;;;12.23;66.59;98333.16;107491;1279;73169;-77
2023/03/25 10:12:27;;;;;;;9.10;3.30;;;;;;;12.65;66.66;98328.35;107335;1278;57842;-73
2023/03/25 10:15:45;;;;;;;10.70;4.10;;;;;;;13.16;64.74;98320.52;107495;1279;58811;-79
2023/03/25 10:18:44;;;;;;;9.40;3.60;;;;;;;14.77;59.95;98311.60;107303;1278;73188;-75
2023/03/25 10:21:41;;;;;;;10.20;3.50;;;;;;;16.65;54.53;98311.37;107377;1279;67029;-75
2023/03/25 10:24:43;;;;;;;8.60;2.80;;;;;;;16.97;50.66;98311.08;107366;1279;72421;-77
2023/03/25 10:27:40;;;;;;;10.50;2.90;;;;;;;16.08;50.89;98316.10;107437;1278;57734;-76
2023/03/25 10:30:34;;;;;;;9.20;2.40;;;;;;;15.40;53.26;98317.79;107126;1279;59156;-75
2023/03/25 10:33:35;;;;;;;9.10;2.90;;;;;;;14.81;54.47;98321.08;107268;1279;71916;-75
2023/03/25 10:36:39;;;;;;;8.90;2.90;;;;;;;14.12;57.29;98323.66;107451;1279;68669;-72
2023/03/25 10:39:32;;;;;;;11.80;3.20;;;;;;;13.50;60.53;98323.67;107417;1279;70271;-74
2023/03/25 10:42:30;;;;;;;8.20;2.40;;;;;;;12.89;63.36;98332.48;107287;1279;57836;-74
2023/03/25 10:45:18;;;;;;;7.50;2.50;;;;;;;12.35;65.81;98337.36;107406;1278;58743;-75
2023/03/25 10:48:20;;;;;;;7.80;2.60;;;;;;;11.76;67.85;98336.46;107445;1278;71637;-74
2023/03/25 10:51:16;;;;;;;7.40;2.30;;;;;;;11.31;71.04;98345.39;107468;1278;66434;-74
2023/03/25 10:54:03;;;;;;;9.80;2.30;;;;;;;10.96;73.24;98348.88;107350;1279;71259;-76
2023/03/25 10:56:54;;;;;;;8.50;2.40;;;;;;;10.69;74.33;98347.71;107214;1279;57886;-75
2023/03/25 11:00:05;;;;;;;8.20;2.40;;;;;;;10.54;76.24;98346.43;107505;1279;57940;-77
2023/03/25 11:02:51;;;;;;;7.00;2.10;;;;;;;10.50;77.29;98337.95;107459;1279;71042;-75
2023/03/25 11:05:38;;;;;;;8.30;2.60;;;;;;;10.52;77.02;98333.87;107370;1279;67803;-76
2023/03/25 11:08:26;;;;;;;6.30;2.40;;;;;;;10.70;77.25;98320.67;107398;1279;72660;-73
2023/03/25 11:11:12;;;;;;;7.70;2.20;;;;;;;10.83;76.55;98311.42;107487;1279;57325;-76
2023/03/25 11:14:00;;;;;;;7.90;2.40;;;;;;;10.88;75.74;98308.05;107304;1279;60080;-76
2023/03/25 11:17:04;;;;;;;6.70;1.90;;;;;;;11.01;75.67;98304.40;107355;1279;72853;-75
2023/03/25 11:20:09;;;;;;;6.40;2.10;;;;;;;11.23;74.24;98297.77;107444;1279;67817;-77
2023/03/25 11:23:15;;;;;;;6.70;2.40;;;;;;;11.32;73.86;98301.08;107418;1279;71971;-76
2023/03/25 11:26:13;;;;;;;7.30;2.30;;;;;;;11.51;73.30;98298.30;107440;1279;57388;-76
2023/03/25 11:29:20;;;;;;;7.50;2.00;;;;;;;11.86;72.77;98288.41;107328;1279;60173;-79
2023/03/25 11:32:15;;;;;;;6.30;2.20;;;;;;;12.73;69.18;98286.84;107475;1279;71569;-76
2023/03/25 11:35:17;;;;;;;8.50;2.10;;;;;;;13.42;65.86;98287.27;107436;1278;65556;-76
2023/03/25 11:38:22;;;;;;;6.40;1.50;;;;;;;13.93;61.76;98294.19;107330;1279;72797;-76
2023/03/25 11:41:12;;;;;;;5.90;1.80;;;;;;;15.10;57.71;98286.83;107300;1279;57875;-74
2023/03/25 11:43:59;;;;;;;5.00;1.50;;;;;;;16.10;53.97;98277.58;107501;1278;58947;-77
2023/03/25 11:46:49;;;;;;;5.80;1.70;;;;;;;16.48;51.50;98276.45;107463;1279;71619;-77
2023/03/25 11:49:40;;;;;;;5.70;1.60;;;;;;;17.10;49.41;98269.17;107325;1279;66431;-78
2023/03/25 11:52:43;;;;;;;6.50;1.90;;;;;;;17.71;48.37;98271.13;107120;1279;213832;-77
2023/03/25 11:55:44;;;;;;;6.00;1.90;;;;;;;18.03;46.31;98271.01;107397;1279;58642;-77
2023/03/25 11:58:35;;;;;;;6.30;1.80;;;;;;;17.80;47.12;98274.46;107457;1279;58966;-77
2023/03/25 12:01:45;;;;;;;6.60;2.10;;;;;;;17.19;48.75;98276.43;107425;1279;73331;-77
2023/03/25 12:04:32;;;;;;;6.70;2.00;;;;;;;16.11;50.80;98277.73;107421;1279;67817;-76
2023/03/25 12:07:20;;;;;;;7.30;2.30;;;;;;;15.43;52.92;98273.45;107184;1279;72768;-78
2023/03/25 12:10:36;;;;;;;6.60;2.10;;;;;;;15.06;54.86;98267.89;107418;1278;57348;-76
2023/03/25 12:13:58;;;;;;;6.70;2.20;;;;;;;14.77;56.14;98266.81;107261;1279;59000;-76
2023/03/25 12:17:13;;;;;;;7.80;2.20;;;;;;;14.57;57.27;98266.61;107460;1279;73154;-79
2023/03/25 12:20:33;;;;;;;7.60;2.60;;;;;;;14.34;57.48;98270.73;107424;1278;67946;-75
2023/03/25 12:24:06;;;;;;;7.00;1.90;;;;;;;14.07;58.79;98269.77;107439;1278;71524;-76
2023/03/25 12:27:47;;;;;;;6.40;2.20;;;;;;;13.80;59.72;98268.38;106940;1284;57510;-77
2023/03/25 12:30:47;;;;;;;7.90;2.40;;;;;;;13.50;60.75;98264.96;106848;1283;58793;-76
2023/03/25 12:33:46;;;;;;;7.30;2.60;;;;;;;13.47;61.07;98259.61;106914;1284;73892;-77
2023/03/25 12:37:13;;;;;;;7.50;2.30;;;;;;;13.46;60.73;98259.65;106973;1284;67712;-75
2023/03/25 12:40:46;;;;;;;8.50;2.30;;;;;;;13.67;60.26;98256.54;106929;1284;72144;-77
2023/03/25 12:44:09;;;;;;;6.60;1.80;;;;;;;14.02;58.78;98254.27;106569;1285;57725;-78
2023/03/25 12:47:33;;;;;;;7.20;2.00;;;;;;;14.19;56.47;98246.41;106999;1283;58785;-75
2023/03/25 12:50:44;;;;;;;7.90;1.70;;;;;;;14.25;56.60;98247.73;106932;1284;71691;-79
2023/03/25 12:53:54;;;;;;;7.50;1.80;;;;;;;14.19;55.89;98249.19;106850;1284;66382;-75
2023/03/25 12:57:22;;;;;;;6.10;1.90;;;;;;;13.92;56.87;98243.73;106957;1283;72729;-75
2023/03/25 13:00:43;;;;;;;6.10;1.60;;;;;;;13.74;57.00;98242.98;106870;1285;57468;-75
2023/03/25 13:03:59;;;;;;;6.40;2.00;;;;;;;13.56;57.64;98238.91;107149;1279;59057;-74
2023/03/25 13:07:22;;;;;;;6.90;1.90;;;;;;;13.46;57.70;98235.46;107427;1279;71852;-75
2023/03/25 13:10:18;;;;;;;7.80;1.90;;;;;;;13.36;57.95;98237.16;107028;1284;65450;-73
2023/03/25 13:13:20;;;;;;;6.60;2.40;;;;;;;13.17;58.09;98230.64;106878;1285;72816;-72
2023/03/25 13:16:16;;;;;;;6.20;2.20;;;;;;;13.17;58.67;98228.13;106791;1285;57501;-76
2023/03/25 13:19:13;;;;;;;9.00;2.10;;;;;;;13.27;58.87;98222.41;106872;1284;60122;-78
2023/03/25 13:22:11;;;;;;;7.90;2.00;;;;;;;13.24;58.54;98219.13;106879;1284;72135;-75
2023/03/25 13:25:03;;;;;;;9.10;2.50;;;;;;;13.19;58.86;98222.58;106969;1284;67802;-76
2023/03/25 13:27:51;;;;;;;6.30;2.10;;;;;;;13.07;59.15;98215.48;106713;1284;73481;-73
2023/03/25 13:30:42;;;;;;;9.20;2.50;;;;;;;12.94;59.72;98215.48;106962;1284;57393;-73